Terminal Aerodrome Forecast
Issued by NWS Sterling, VA

Home | Current Version | Previous Version | Text Only | Print | Product List | Glossary On
Versions: 1 2 3 4 5 6 7 8 9 10 11 12 13
000
FTUS41 KLWX 242320
TAFCHO
TAF
KCHO 242320Z 2500/2524 18005KT P6SM SCT200
     FM250300 18005KT P6SM SCT030
     FM250400 18005KT P6SM BKN030
     FM251000 17005KT P6SM BKN008
     FM251300 18009KT P6SM BKN015
     FM251500 18012KT 3SM -SHRA BKN015
     FM251800 22013G20KT P6SM -SHRA BKN040
     FM252100 28016G25KT P6SM BKN250=

USA.gov is the U.S. government's official web portal to all federal, state and local government web resources and services.